Aeroporto :
LOGIN :

Iscrizione | Disclaimer

   EN    FR    IT 

 










Sommario :    VFR   VFR Marginale   IFR   IFR Intensivo   IFR Molto Intensivo
Visibilità : 
Base nubi : 
>= 8 km
>= 3000ft
5 / 8 km
1000 / 3000 ft
1500m / 5 km
500 / 1000 ft
800 / 1500m
200 / 500 ft
< 800m
< 200 ft
Simboli :   Temporali  Nebbia  Neve Forte  Precipitazioni Forti  Vento > 20 kt
SIGMETs :   Varie  Temporali  Ghiacco  Turbolenza  Onda orograficha  Ceneri Vulcaniche






- Altitudine del aeroporto : 124 ft
- Codice IATA : NHT


EGWU - RAF Northolt

ULTIMO METAR :
  • 130720Z 29014KT 9999 BKN026 BKN035 07/03 Q0976 NOSIG RMK BLU BLU

METARs OBSOLETI :
  • 130650Z 30016KT 9999 -RA BKN025 BKN030 07/03 Q0976 NOSIG RMK BLU BLU
  • 130550Z AUTO 29015G25KT 9999 // SCT027/// BKN035/// BKN050/// 07/03 Q0974
  • 130450Z AUTO 30018KT 9999 // SCT024/// BKN030/// 07/04 Q0973

TAF AMD TAF EGWU
Valido dal 13 a 07 ore il 14 a 00 ore UTC


130700Z 1307/1324 29018G28KT 9999 SCT024 BKN030
BECMG 1307/1309 BKN040
PROB30
TEMPO 1309/1316 30025G38KT
BECMG 1318/1321 26012KT



MetMap, La meteo Aeronautica in un colpo d'occhio ! - Copyright ORBIFLY Dicembre 2007 - Disclaimer

ORBIFLY MET'MAP TEAM :

Programmazione e sviluppo : Alexandra Zaïnal
Concezione : Baudouin d'Aumeries
Aiuto per la programmazione : Marc-Olivier Méhu
Supporto tecnico e logistico : Manuel Goepfert
Aiuto per la traduzione : Arnaldo La Scala

Contatto : metmap@orbifly.com




FONTI E CREDITI :

   NOAA